Morrow, OH (45152)

5:34 PM EST on December 02, 2016 (GMT -0500)
Cabin Bright World HQ | | Change Station

Elev 915 ft 39.39 °N, 84.14 °W | Updated 47 seconds ago

Overcast
Overcast
39.4 °F
Feels Like 39 °F
N
2.0
Wind Variable Wind from SW
Gusts 3.0 mph

Today
High -- | Low -- °F
--% Chance of Precip.
Yesterday
High -- | Low -- °F
Precip. -- in
Pressure 30.24 in
Visibility 10.0 miles
Clouds Overcast 2600 ft
Windchill 39 °F
Dew Point 33 °F
Humidity 77%
Rainfall 0.00 in
Snow Depth Not available.
7:38 AM 5:13 PM
Waxing Crescent, 11% visible
METAR KMGY 022153Z AUTO 29007KT 10SM OVC026 04/M02 A3022 RMK AO2 SLP239 T00391017
Pressure 30.24 in
Visibility 10.0 miles
Clouds Overcast 2600 ft
Windchill 39 °F
Dew Point 33 °F
Humidity 77%
Rainfall 0.00 in
Snow Depth Not available.
7:38 AM 5:13 PM
Waxing Crescent, 11% visible
METAR KMGY 022153Z AUTO 29007KT 10SM OVC026 04/M02 A3022 RMK AO2 SLP239 T00391017

10-Day Weather Forecast

Almanac

Astronomy

Dec. 02, 2016 Rise Set
Actual Time
Civil Twilight
Nautical Twilight
Astronomical Twilight
Moon
Length of Visible Light
Length of Day
Tomorrow will be .
, % of the Moon is Illuminated

Today's Extremes

State Highs State Lows

Community

WunderPhotos

Upload Photos

1,955,376 photos uploaded!

WunderBlog® & News

Nearby

Air Quality

  Air Quality AQ Index Pollutant
Not available.

Snow Depth

Station Depth Elevation

Earthquake Activity

City Distance Mag. Time & Date
Minimum magnitude displayed is 2.5.

Coastal Water Temperatures

Place Temperature

Stations

Nearby Weather Stations

Station Location Temp. Windchill Dew Point Humidity Wind Precip. Elev Updated Type
                   

Watches & Warnings

There are currently no watches in effect.